createdAt,value
2023-11-08T00:00:05.890Z,8.90
2023-11-08T00:02:39.571Z,8.50
2023-11-08T00:05:07.574Z,8.82
2023-11-08T00:07:34.725Z,7.40
2023-11-08T00:10:02.202Z,7.32
2023-11-08T00:12:29.508Z,8.05
2023-11-08T00:14:58.692Z,7.40
2023-11-08T00:17:27.204Z,7.40
2023-11-08T00:19:55.977Z,7.90
2023-11-08T00:22:24.986Z,7.32
2023-11-08T00:24:52.244Z,7.97
2023-11-08T00:27:19.315Z,8.40
2023-11-08T00:29:47.803Z,9.27
2023-11-08T00:32:17.276Z,9.20
2023-11-08T00:34:44.520Z,8.60
2023-11-08T00:37:11.816Z,8.65
2023-11-08T00:39:38.978Z,7.75
2023-11-08T00:42:06.420Z,7.82
2023-11-08T00:44:33.476Z,8.10
2023-11-08T00:47:00.623Z,7.53
2023-11-08T00:49:28.837Z,8.45
2023-11-08T00:51:56.177Z,8.35
2023-11-08T00:54:23.285Z,7.43
2023-11-08T00:56:50.431Z,7.93
2023-11-08T00:59:20.034Z,6.82
2023-11-08T01:01:48.856Z,7.28
2023-11-08T01:04:16.120Z,7.97
2023-11-08T01:06:43.659Z,7.70
2023-11-08T01:09:12.162Z,7.55
2023-11-08T01:11:39.605Z,8.00
2023-11-08T01:14:06.766Z,8.00
2023-11-08T01:16:33.892Z,8.23
2023-11-08T01:19:01.147Z,9.00
2023-11-08T01:21:28.440Z,8.57
2023-11-08T01:23:56.287Z,8.30
2023-11-08T01:26:23.397Z,8.32
2023-11-08T01:28:50.632Z,8.23
2023-11-08T01:31:18.236Z,7.93
2023-11-08T01:33:45.474Z,8.23
2023-11-08T01:36:13.313Z,7.65
2023-11-08T01:38:41.207Z,8.63
2023-11-08T01:41:08.449Z,8.25
2023-11-08T01:43:35.741Z,7.50
2023-11-08T01:46:08.022Z,8.25
2023-11-08T01:48:35.810Z,7.55
2023-11-08T01:51:04.936Z,8.48
2023-11-08T01:53:33.801Z,8.15
2023-11-08T01:56:01.291Z,7.35
2023-11-08T01:58:28.607Z,7.70
2023-11-08T02:00:56.441Z,8.73
2023-11-08T02:03:24.917Z,8.50
2023-11-08T02:05:53.146Z,7.88
2023-11-08T02:08:20.224Z,8.35
2023-11-08T02:10:47.396Z,7.82
2023-11-08T02:13:14.566Z,8.27
2023-11-08T02:15:43.656Z,8.63
2023-11-08T02:18:12.225Z,8.07
2023-11-08T02:20:39.539Z,7.78
2023-11-08T02:23:07.429Z,7.75
2023-11-08T02:25:34.701Z,7.35
2023-11-08T02:28:01.826Z,6.97
2023-11-08T02:30:29.091Z,7.25
2023-11-08T02:32:56.464Z,6.70
2023-11-08T02:35:23.792Z,6.80
2023-11-08T02:37:50.984Z,7.00
2023-11-08T02:40:19.172Z,7.47
2023-11-08T02:42:47.454Z,7.72
2023-11-08T02:45:14.937Z,7.45
2023-11-08T02:47:42.479Z,6.45
2023-11-08T02:50:10.104Z,6.78
2023-11-08T02:52:37.393Z,6.80
2023-11-08T02:55:05.254Z,7.40
2023-11-08T02:57:32.379Z,6.85
2023-11-08T02:59:59.548Z,7.07
2023-11-08T03:02:26.627Z,7.45
2023-11-08T03:04:53.822Z,7.45
2023-11-08T03:07:22.027Z,7.85
2023-11-08T03:09:49.232Z,7.57
2023-11-08T03:12:16.455Z,7.15
2023-11-08T03:14:43.774Z,7.97
2023-11-08T03:17:11.133Z,7.55
2023-11-08T03:19:38.363Z,8.93
2023-11-08T03:22:06.338Z,8.80
2023-11-08T03:24:33.498Z,9.32
2023-11-08T03:27:00.638Z,11.13
2023-11-08T03:29:27.686Z,12.68
2023-11-08T03:31:55.038Z,9.95
2023-11-08T03:34:23.216Z,9.10
2023-11-08T03:36:50.535Z,6.57
2023-11-08T03:39:17.643Z,6.60
2023-11-08T03:41:44.790Z,6.07
2023-11-08T03:44:11.957Z,6.22
2023-11-08T03:46:39.061Z,6.32
2023-11-08T03:49:06.677Z,6.32
2023-11-08T03:51:33.917Z,6.32
2023-11-08T03:54:01.026Z,5.47
2023-11-08T03:56:28.896Z,6.20
2023-11-08T03:58:55.953Z,5.38
2023-11-08T04:01:23.247Z,5.20
2023-11-08T04:03:50.514Z,4.57
2023-11-08T04:06:17.742Z,5.18
2023-11-08T04:08:45.050Z,4.97
2023-11-08T04:11:12.117Z,5.03
2023-11-08T04:13:39.181Z,4.80
2023-11-08T04:16:07.204Z,5.28
2023-11-08T04:18:35.381Z,5.22
2023-11-08T04:21:05.286Z,5.40
2023-11-08T04:23:32.516Z,4.68
2023-11-08T04:25:59.667Z,4.70
2023-11-08T04:28:26.723Z,4.20
2023-11-08T04:30:53.868Z,4.70
2023-11-08T04:33:21.033Z,3.90
2023-11-08T04:35:48.309Z,5.40
2023-11-08T04:38:15.771Z,5.55
2023-11-08T04:40:43.939Z,5.13
2023-11-08T04:43:11.211Z,5.55
2023-11-08T04:45:39.159Z,5.95
2023-11-08T04:48:06.298Z,5.95
2023-11-08T04:50:33.503Z,5.68
2023-11-08T04:53:00.844Z,5.43
2023-11-08T04:55:27.947Z,5.97
2023-11-08T04:57:55.320Z,8.80
2023-11-08T05:00:23.049Z,5.57
2023-11-08T05:02:50.261Z,9.18
2023-11-08T05:05:17.478Z,5.95
2023-11-08T05:07:45.145Z,4.90
2023-11-08T05:10:12.553Z,13.18
2023-11-08T05:12:40.085Z,15.95
2023-11-08T05:15:10.572Z,7.90
2023-11-08T05:17:38.832Z,9.13
2023-11-08T05:20:07.945Z,8.40
2023-11-08T05:22:35.652Z,7.47
2023-11-08T05:25:02.847Z,6.28
2023-11-08T05:27:29.926Z,6.25
2023-11-08T05:29:57.134Z,7.65
2023-11-08T05:32:25.699Z,8.30
2023-11-08T05:34:52.931Z,10.13
2023-11-08T05:37:20.209Z,10.02
2023-11-08T05:39:48.553Z,7.40
2023-11-08T05:42:17.410Z,9.23
2023-11-08T05:44:44.747Z,7.22
2023-11-08T05:47:11.858Z,8.43
2023-11-08T05:49:39.438Z,6.82
2023-11-08T05:52:06.832Z,6.72
2023-11-08T05:54:34.006Z,5.90
2023-11-08T05:57:01.365Z,6.22
2023-11-08T05:59:29.442Z,6.03
2023-11-08T06:01:56.687Z,6.60
2023-11-08T06:04:23.719Z,5.40
2023-11-08T06:06:51.893Z,4.70
2023-11-08T06:09:20.044Z,6.40
2023-11-08T06:11:47.311Z,4.78
2023-11-08T06:14:14.439Z,5.55
2023-11-08T06:16:43.271Z,4.47
2023-11-08T06:19:10.884Z,4.82
2023-11-08T06:21:38.319Z,4.30
2023-11-08T06:24:06.117Z,4.90
2023-11-08T06:26:33.406Z,5.07
2023-11-08T06:29:00.441Z,4.32
2023-11-08T06:31:34.641Z,4.97
2023-11-08T06:34:01.929Z,3.65
2023-11-08T06:36:29.678Z,4.47
2023-11-08T06:38:56.873Z,3.47
2023-11-08T06:41:25.004Z,3.10
2023-11-08T06:43:52.850Z,3.35
2023-11-08T06:46:19.947Z,3.13
2023-11-08T06:48:48.594Z,3.45
2023-11-08T06:51:15.833Z,3.05
2023-11-08T06:53:42.948Z,3.85
2023-11-08T06:56:13.164Z,3.20
2023-11-08T06:58:40.358Z,3.80
2023-11-08T07:01:11.943Z,3.47
2023-11-08T07:03:40.479Z,2.55
2023-11-08T07:06:07.720Z,3.42
2023-11-08T07:08:35.006Z,3.00
2023-11-08T07:11:02.285Z,3.53
2023-11-08T07:13:29.893Z,4.20
2023-11-08T07:15:57.148Z,4.60
2023-11-08T07:18:24.237Z,6.45
2023-11-08T07:20:51.642Z,12.82
2023-11-08T07:23:18.709Z,5.95
2023-11-08T07:25:46.015Z,5.30
2023-11-08T07:28:13.240Z,5.90
2023-11-08T07:30:41.648Z,5.60
2023-11-08T07:33:09.116Z,5.35
2023-11-08T07:35:36.370Z,4.93
2023-11-08T07:38:03.473Z,4.65
2023-11-08T07:40:31.455Z,4.25
2023-11-08T07:42:58.716Z,4.78
2023-11-08T07:45:25.862Z,3.97
2023-11-08T07:47:53.124Z,3.88
2023-11-08T07:50:22.134Z,4.13
2023-11-08T07:52:49.261Z,3.58
2023-11-08T07:55:16.481Z,3.28
2023-11-08T07:57:43.767Z,3.10
2023-11-08T08:00:16.035Z,3.30
2023-11-08T08:02:44.502Z,3.38
2023-11-08T08:05:13.677Z,3.67
2023-11-08T08:07:40.935Z,3.38
2023-11-08T08:10:08.579Z,3.13
2023-11-08T08:12:42.666Z,2.45
2023-11-08T08:15:14.832Z,2.38
2023-11-08T08:17:46.786Z,2.45
2023-11-08T08:20:14.464Z,2.28
2023-11-08T08:22:41.725Z,2.40
2023-11-08T08:25:12.752Z,2.10
2023-11-08T08:27:41.504Z,1.70
2023-11-08T08:30:12.441Z,1.90
2023-11-08T08:32:39.887Z,1.80
2023-11-08T08:35:07.410Z,1.95
2023-11-08T08:37:34.575Z,2.00
2023-11-08T08:40:01.967Z,2.35
2023-11-08T08:42:29.230Z,1.90
2023-11-08T08:44:56.273Z,2.10
2023-11-08T08:47:29.731Z,2.05
2023-11-08T08:50:00.304Z,1.95
2023-11-08T08:52:27.523Z,1.58
2023-11-08T08:54:54.662Z,1.70
2023-11-08T08:57:21.869Z,1.83
2023-11-08T08:59:48.999Z,2.10
2023-11-08T09:02:16.947Z,2.10
2023-11-08T09:04:44.407Z,1.80
2023-11-08T09:07:12.587Z,1.67
2023-11-08T09:09:39.742Z,1.75
2023-11-08T09:12:07.572Z,1.58
2023-11-08T09:14:35.177Z,1.83
2023-11-08T09:17:02.798Z,1.92
2023-11-08T09:19:30.091Z,1.73
2023-11-08T09:21:57.911Z,1.50
2023-11-08T09:24:25.140Z,1.55
2023-11-08T09:26:52.410Z,1.80
2023-11-08T09:29:20.228Z,1.50
2023-11-08T09:31:48.593Z,1.85
2023-11-08T09:34:15.914Z,1.80
2023-11-08T09:36:45.457Z,1.70
2023-11-08T09:39:12.648Z,1.63
2023-11-08T09:41:40.103Z,1.60
2023-11-08T09:44:08.920Z,1.65
2023-11-08T09:46:38.768Z,1.70
2023-11-08T09:49:06.094Z,1.52
2023-11-08T09:51:33.425Z,1.35
2023-11-08T09:54:04.602Z,1.45
2023-11-08T09:56:33.407Z,1.52
2023-11-08T09:59:02.039Z,1.45
2023-11-08T10:01:31.555Z,1.42
2023-11-08T10:03:59.014Z,1.27
2023-11-08T10:06:28.559Z,1.35
2023-11-08T10:08:56.333Z,1.10
2023-11-08T10:11:30.602Z,0.90
2023-11-08T10:14:01.147Z,0.90
2023-11-08T10:16:28.601Z,1.10
2023-11-08T10:19:36.309Z,0.80
2023-11-08T10:21:50.262Z,0.80
2023-11-08T10:24:18.082Z,1.00
2023-11-08T10:26:45.572Z,1.00
2023-11-08T10:29:13.377Z,1.10
2023-11-08T10:31:40.760Z,0.90
2023-11-08T10:34:09.649Z,1.00
2023-11-08T10:36:38.551Z,1.25
2023-11-08T10:39:08.012Z,1.15
2023-11-08T10:41:38.136Z,1.02
2023-11-08T10:44:13.591Z,0.80
2023-11-08T10:46:43.507Z,0.90
2023-11-08T10:49:12.807Z,0.90
2023-11-08T10:51:43.450Z,0.70
2023-11-08T10:54:10.701Z,0.65
2023-11-08T10:56:39.554Z,0.75
2023-11-08T10:59:12.146Z,0.80
2023-11-08T11:01:41.190Z,0.70
2023-11-08T11:04:12.924Z,0.75
2023-11-08T11:06:41.630Z,0.73
2023-11-08T11:09:12.430Z,0.50
2023-11-08T11:11:43.829Z,0.40
2023-11-08T11:14:34.472Z,0.60
2023-11-08T11:17:11.370Z,0.60
2023-11-08T11:19:42.881Z,0.90
2023-11-08T11:22:16.553Z,0.30
2023-11-08T11:24:46.677Z,0.40
2023-11-08T11:27:33.885Z,0.68
2023-11-08T11:30:18.884Z,0.68
2023-11-08T11:32:48.017Z,0.40
2023-11-08T11:35:19.086Z,0.40
2023-11-08T11:38:07.194Z,0.50
2023-11-08T11:40:51.147Z,0.47
2023-11-08T11:43:34.293Z,0.40
2023-11-08T11:46:04.428Z,0.35
2023-11-08T11:48:36.156Z,0.40
2023-11-08T11:51:04.178Z,0.20
2023-11-08T11:53:32.100Z,0.43
2023-11-08T11:56:07.898Z,0.40
2023-11-08T11:58:36.712Z,0.30
2023-11-08T12:01:07.902Z,0.30
2023-11-08T12:03:35.247Z,0.20
2023-11-08T12:06:02.655Z,0.50
2023-11-08T12:08:29.914Z,0.60
2023-11-08T12:11:13.922Z,0.55
2023-11-08T12:13:56.915Z,0.45
2023-11-08T12:16:24.082Z,0.40
2023-11-08T12:18:52.993Z,0.65
2023-11-08T12:21:20.585Z,0.52
2023-11-08T12:23:50.618Z,0.70
2023-11-08T12:26:18.315Z,0.20
2023-11-08T12:28:47.008Z,0.40
2023-11-08T12:31:21.826Z,0.30
2023-11-08T12:33:50.658Z,0.40
2023-11-08T12:36:18.196Z,0.32
2023-11-08T12:38:45.378Z,0.30
2023-11-08T12:41:12.578Z,0.30
2023-11-08T12:43:59.260Z,0.28
2023-11-08T12:46:38.412Z,0.30
2023-11-08T12:49:16.816Z,0.43
2023-11-08T12:51:45.621Z,0.50
2023-11-08T12:54:15.242Z,0.40
2023-11-08T12:56:43.181Z,0.40
2023-11-08T12:59:20.835Z,0.40
2023-11-08T13:01:51.113Z,0.38
2023-11-08T13:04:19.335Z,0.40
2023-11-08T13:06:47.706Z,0.30
2023-11-08T13:09:16.035Z,0.50
2023-11-08T13:11:43.261Z,0.50
2023-11-08T13:14:10.423Z,0.47
2023-11-08T13:16:37.731Z,0.20
2023-11-08T13:19:07.880Z,0.22
2023-11-08T13:21:35.273Z,0.60
2023-11-08T13:24:07.144Z,0.40
2023-11-08T13:26:36.337Z,0.60
2023-11-08T13:29:04.807Z,0.45
2023-11-08T13:31:32.203Z,0.60
2023-11-08T13:33:59.951Z,0.43
2023-11-08T13:36:27.966Z,0.30
2023-11-08T13:38:56.587Z,0.30
2023-11-08T13:41:24.313Z,0.38
2023-11-08T13:43:51.443Z,0.30
2023-11-08T13:46:18.643Z,0.40
2023-11-08T13:48:45.874Z,0.50
2023-11-08T13:51:13.065Z,0.70
2023-11-08T13:53:40.271Z,0.40
2023-11-08T13:56:07.715Z,0.47
2023-11-08T13:58:36.443Z,0.50
2023-11-08T14:01:08.668Z,0.30
2023-11-08T14:03:37.164Z,0.55
2023-11-08T14:06:07.161Z,0.50
2023-11-08T14:08:34.369Z,0.40
2023-11-08T14:11:01.479Z,0.60
2023-11-08T14:13:29.188Z,0.70
2023-11-08T14:15:56.456Z,0.50
2023-11-08T14:18:23.514Z,0.50
2023-11-08T14:20:50.844Z,0.70
2023-11-08T14:23:17.902Z,0.50
2023-11-08T14:25:45.039Z,0.52
2023-11-08T14:28:14.889Z,0.60
2023-11-08T14:30:41.941Z,0.60
2023-11-08T14:33:09.299Z,0.70
2023-11-08T14:35:36.438Z,0.68
2023-11-08T14:38:03.776Z,0.80
2023-11-08T14:40:32.351Z,0.70
2023-11-08T14:43:00.854Z,0.65
2023-11-08T14:45:28.127Z,1.35
2023-11-08T14:47:56.193Z,0.93
2023-11-08T14:50:23.414Z,1.13
2023-11-08T14:52:51.393Z,0.85
2023-11-08T14:55:19.123Z,1.00
2023-11-08T14:57:46.431Z,0.80
2023-11-08T15:00:14.065Z,0.90
2023-11-08T15:02:41.177Z,1.33
2023-11-08T15:05:08.957Z,1.30
2023-11-08T15:09:42.606Z,1.40
2023-11-08T15:10:23.578Z,1.27
2023-11-08T15:12:50.808Z,1.08
2023-11-08T15:15:18.569Z,1.00
2023-11-08T15:17:46.292Z,1.00
2023-11-08T15:20:13.787Z,1.00
2023-11-08T15:22:41.564Z,1.23
2023-11-08T15:25:10.451Z,0.98
2023-11-08T15:27:37.926Z,0.70
2023-11-08T15:30:09.203Z,0.88
2023-11-08T15:32:36.411Z,0.68
2023-11-08T15:35:03.577Z,1.27
2023-11-08T15:37:30.791Z,1.20
2023-11-08T15:39:58.109Z,1.13
2023-11-08T15:42:25.258Z,1.08
2023-11-08T15:44:52.482Z,1.00
2023-11-08T15:47:20.823Z,1.10
2023-11-08T15:49:48.176Z,1.15
2023-11-08T15:52:15.379Z,1.23
2023-11-08T15:54:42.594Z,1.23
2023-11-08T15:57:09.845Z,1.17
2023-11-08T15:59:36.926Z,1.00
2023-11-08T16:02:05.161Z,1.10
2023-11-08T16:04:32.334Z,1.20
2023-11-08T16:06:59.536Z,1.58
2023-11-08T16:09:32.306Z,1.17
2023-11-08T16:12:00.450Z,1.75
2023-11-08T16:14:27.704Z,2.83
2023-11-08T16:16:54.779Z,3.53
2023-11-08T16:19:22.657Z,3.30
2023-11-08T16:21:50.445Z,4.47
2023-11-08T16:24:18.141Z,4.45
2023-11-08T16:26:46.186Z,3.60
2023-11-08T16:29:49.625Z,2.92
2023-11-08T16:32:33.622Z,2.55
2023-11-08T16:34:50.240Z,2.85
2023-11-08T16:37:17.921Z,3.60
2023-11-08T16:39:45.350Z,3.30
2023-11-08T16:42:12.548Z,2.72
2023-11-08T16:44:40.269Z,2.95
2023-11-08T16:47:07.456Z,3.30
2023-11-08T16:49:34.738Z,2.97
2023-11-08T16:52:01.967Z,3.33
2023-11-08T16:54:29.208Z,3.75
2023-11-08T16:56:56.324Z,4.00
2023-11-08T16:59:23.391Z,4.30
2023-11-08T17:01:50.923Z,4.78
2023-11-08T17:04:18.089Z,5.47
2023-11-08T17:06:45.854Z,5.60
2023-11-08T17:09:14.381Z,4.85
2023-11-08T17:11:41.745Z,4.70
2023-11-08T17:14:08.850Z,3.90
2023-11-08T17:16:35.982Z,4.00
2023-11-08T17:19:03.233Z,3.97
2023-11-08T17:21:33.064Z,3.55
2023-11-08T17:24:00.241Z,3.63
2023-11-08T17:26:27.443Z,3.50
2023-11-08T17:28:54.780Z,4.20
2023-11-08T17:31:22.309Z,3.90
2023-11-08T17:33:49.585Z,4.05
2023-11-08T17:36:16.752Z,3.97
2023-11-08T17:38:46.329Z,4.10
2023-11-08T17:41:13.647Z,3.28
2023-11-08T17:43:42.043Z,3.15
2023-11-08T17:46:09.734Z,2.58
2023-11-08T17:48:37.985Z,2.97
2023-11-08T17:51:06.141Z,3.20
2023-11-08T17:53:34.792Z,4.55
2023-11-08T17:56:01.981Z,5.00
2023-11-08T17:58:29.238Z,5.95
2023-11-08T18:00:57.056Z,6.43
2023-11-08T18:03:24.344Z,10.30
2023-11-08T18:05:51.810Z,10.13
2023-11-08T18:08:18.932Z,9.90
2023-11-08T18:10:46.068Z,7.93
2023-11-08T18:13:13.317Z,6.93
2023-11-08T18:15:41.092Z,6.00
2023-11-08T18:18:08.915Z,4.57
2023-11-08T18:20:37.019Z,4.20
2023-11-08T18:23:06.607Z,4.43
2023-11-08T18:25:33.966Z,3.90
2023-11-08T18:28:01.133Z,4.95
2023-11-08T18:30:31.160Z,6.80
2023-11-08T18:32:59.050Z,6.30
2023-11-08T18:35:29.556Z,6.25
2023-11-08T18:37:56.756Z,5.07
2023-11-08T18:40:24.302Z,5.40
2023-11-08T18:42:51.435Z,5.60
2023-11-08T18:45:18.928Z,5.68
2023-11-08T18:47:46.086Z,5.63
2023-11-08T18:50:14.600Z,5.53
2023-11-08T18:52:41.785Z,5.82
2023-11-08T18:55:09.323Z,5.18
2023-11-08T18:57:37.294Z,5.63
2023-11-08T19:00:06.823Z,6.07
2023-11-08T19:02:34.137Z,5.68
2023-11-08T19:05:02.082Z,5.57
2023-11-08T19:07:29.314Z,5.63
2023-11-08T19:09:56.825Z,5.97
2023-11-08T19:12:25.322Z,5.43
2023-11-08T19:14:52.523Z,5.40
2023-11-08T19:17:19.995Z,5.53
2023-11-08T19:19:47.554Z,6.50
2023-11-08T19:22:14.856Z,6.97
2023-11-08T19:24:42.023Z,6.65
2023-11-08T19:27:09.123Z,12.73
2023-11-08T19:29:36.342Z,9.65
2023-11-08T19:32:03.897Z,7.90
2023-11-08T19:34:31.028Z,6.80
2023-11-08T19:36:59.337Z,6.05
2023-11-08T19:39:26.610Z,6.10
2023-11-08T19:41:53.746Z,6.80
2023-11-08T19:44:20.812Z,7.53
2023-11-08T19:46:48.194Z,8.32
2023-11-08T19:49:16.834Z,7.30
2023-11-08T19:51:45.730Z,7.18
2023-11-08T19:54:13.836Z,7.18
2023-11-08T19:56:41.039Z,7.57
2023-11-08T19:59:08.380Z,8.20
2023-11-08T20:01:35.619Z,8.77
2023-11-08T20:04:02.894Z,6.32
2023-11-08T20:06:30.046Z,6.32
2023-11-08T20:08:57.148Z,6.00
2023-11-08T20:11:24.294Z,6.80
2023-11-08T20:13:51.471Z,5.55
2023-11-08T20:16:18.593Z,5.38
2023-11-08T20:18:45.804Z,5.95
2023-11-08T20:21:13.950Z,7.03
2023-11-08T20:23:41.093Z,6.38
2023-11-08T20:26:08.349Z,5.60
2023-11-08T20:28:37.544Z,5.60
2023-11-08T20:31:06.039Z,6.05
2023-11-08T20:33:33.777Z,5.70
2023-11-08T20:36:01.970Z,9.60
2023-11-08T20:38:29.511Z,26.60
2023-11-08T20:40:57.014Z,29.25
2023-11-08T20:43:24.600Z,23.35
2023-11-08T20:45:51.912Z,16.15
2023-11-08T20:48:19.084Z,20.63
2023-11-08T20:50:46.269Z,15.13
2023-11-08T20:53:13.923Z,11.07
2023-11-08T20:55:41.323Z,8.40
2023-11-08T20:58:08.504Z,7.93
2023-11-08T21:00:35.691Z,8.85
2023-11-08T21:03:04.374Z,7.90
2023-11-08T21:05:31.563Z,7.85
2023-11-08T21:07:58.739Z,10.30
2023-11-08T21:10:25.838Z,8.43
2023-11-08T21:12:53.013Z,7.80
2023-11-08T21:15:20.393Z,7.43
2023-11-08T21:17:47.728Z,7.07
2023-11-08T21:20:15.737Z,5.15
2023-11-08T21:22:43.332Z,5.07
2023-11-08T21:25:11.170Z,6.15
2023-11-08T21:27:38.837Z,6.82
2023-11-08T21:30:08.351Z,6.40
2023-11-08T21:32:37.106Z,6.70
2023-11-08T21:35:04.589Z,5.68
2023-11-08T21:37:31.690Z,5.60
2023-11-08T21:39:58.957Z,7.55
2023-11-08T21:42:26.287Z,7.95
2023-11-08T21:44:53.590Z,6.68
2023-11-08T21:47:20.738Z,6.72
2023-11-08T21:49:48.204Z,5.45
2023-11-08T21:52:15.459Z,5.45
2023-11-08T21:54:43.141Z,5.28
2023-11-08T21:57:11.617Z,6.50
2023-11-08T21:59:38.921Z,6.38
2023-11-08T22:02:08.107Z,5.40
2023-11-08T22:04:36.651Z,5.80
2023-11-08T22:07:04.654Z,5.47
2023-11-08T22:09:32.047Z,5.47
2023-11-08T22:11:59.211Z,6.35
2023-11-08T22:14:27.554Z,6.72
2023-11-08T22:16:54.727Z,6.35
2023-11-08T22:19:21.940Z,5.63
2023-11-08T22:21:49.037Z,6.57
2023-11-08T22:24:16.175Z,6.28
2023-11-08T22:26:43.352Z,6.15
2023-11-08T22:29:10.480Z,6.00
2023-11-08T22:31:38.364Z,6.53
2023-11-08T22:34:05.812Z,6.20
2023-11-08T22:36:33.319Z,6.00
2023-11-08T22:39:02.141Z,6.20
2023-11-08T22:41:29.492Z,6.72
2023-11-08T22:43:56.813Z,6.97
2023-11-08T22:46:31.312Z,6.57
2023-11-08T22:51:26.348Z,6.70
2023-11-08T22:53:54.606Z,6.82
2023-11-08T22:56:21.925Z,5.95
2023-11-08T22:58:49.101Z,6.07
2023-11-08T23:01:25.885Z,5.72
2023-11-08T23:03:53.263Z,5.10
2023-11-08T23:06:23.469Z,5.93
2023-11-08T23:08:50.579Z,5.80
2023-11-08T23:11:17.836Z,5.90
2023-11-08T23:13:45.601Z,6.05
2023-11-08T23:16:13.590Z,6.32
2023-11-08T23:18:40.852Z,6.07
2023-11-08T23:21:08.312Z,6.93
2023-11-08T23:23:39.137Z,5.95
2023-11-08T23:26:08.513Z,6.53
2023-11-08T23:28:36.077Z,6.82
2023-11-08T23:31:04.411Z,6.15
2023-11-08T23:33:33.158Z,5.90
2023-11-08T23:36:01.189Z,6.18
2023-11-08T23:38:28.651Z,5.80
2023-11-08T23:40:56.060Z,5.32
2023-11-08T23:43:24.353Z,5.60
2023-11-08T23:45:51.564Z,5.55
2023-11-08T23:48:18.797Z,5.88
2023-11-08T23:50:46.076Z,5.53
2023-11-08T23:53:13.324Z,5.40
2023-11-08T23:55:40.512Z,5.10
2023-11-08T23:58:11.791Z,4.85
